sensor_id;sensor_type;location;lat;lon;timestamp;P1;durP1;ratioP1;P2;durP2;ratioP2
36797;SDS011;22748;8.426;99.512;2022-10-17T00:01:57;10.80;;;8.07;;
36797;SDS011;22748;8.426;99.512;2022-10-17T00:04:28;10.18;;;9.18;;
36797;SDS011;22748;8.426;99.512;2022-10-17T00:06:58;11.88;;;10.43;;
36797;SDS011;22748;8.426;99.512;2022-10-17T00:09:27;12.45;;;9.70;;
36797;SDS011;22748;8.426;99.512;2022-10-17T00:11:56;11.40;;;8.50;;
36797;SDS011;22748;8.426;99.512;2022-10-17T00:14:27;10.60;;;9.40;;
36797;SDS011;22748;8.426;99.512;2022-10-17T00:16:58;10.93;;;9.82;;
36797;SDS011;22748;8.426;99.512;2022-10-17T00:19:29;14.25;;;10.15;;
36797;SDS011;22748;8.426;99.512;2022-10-17T00:21:58;12.05;;;9.98;;
36797;SDS011;22748;8.426;99.512;2022-10-17T00:24:29;13.27;;;10.15;;
36797;SDS011;22748;8.426;99.512;2022-10-17T00:26:59;22.60;;;13.48;;
36797;SDS011;22748;8.426;99.512;2022-10-17T00:29:28;12.10;;;11.00;;
36797;SDS011;22748;8.426;99.512;2022-10-17T00:31:58;16.00;;;11.63;;
36797;SDS011;22748;8.426;99.512;2022-10-17T00:34:29;16.05;;;11.60;;
36797;SDS011;22748;8.426;99.512;2022-10-17T00:36:59;14.13;;;12.48;;
36797;SDS011;22748;8.426;99.512;2022-10-17T00:39:29;13.18;;;11.88;;
36797;SDS011;22748;8.426;99.512;2022-10-17T00:41:58;13.73;;;12.30;;
36797;SDS011;22748;8.426;99.512;2022-10-17T00:47:26;32.05;;;25.10;;
36797;SDS011;22748;8.426;99.512;2022-10-17T00:49:57;26.70;;;19.92;;
36797;SDS011;22748;8.426;99.512;2022-10-17T00:52:28;25.10;;;18.80;;
36797;SDS011;22748;8.426;99.512;2022-10-17T00:57:29;16.88;;;14.23;;
36797;SDS011;22748;8.426;99.512;2022-10-17T00:59:59;20.25;;;17.35;;
36797;SDS011;22748;8.426;99.512;2022-10-17T01:02:35;14.88;;;13.25;;
36797;SDS011;22748;8.426;99.512;2022-10-17T01:05:07;13.63;;;12.23;;
36797;SDS011;22748;8.426;99.512;2022-10-17T01:07:39;13.98;;;11.98;;
36797;SDS011;22748;8.426;99.512;2022-10-17T01:10:11;11.60;;;10.25;;
36797;SDS011;22748;8.426;99.512;2022-10-17T01:12:48;15.07;;;10.80;;
36797;SDS011;22748;8.426;99.512;2022-10-17T01:15:34;16.73;;;12.60;;
36797;SDS011;22748;8.426;99.512;2022-10-17T01:18:22;24.17;;;12.70;;
36797;SDS011;22748;8.426;99.512;2022-10-17T01:24:12;18.08;;;12.25;;
36797;SDS011;22748;8.426;99.512;2022-10-17T01:27:10;17.77;;;11.75;;
36797;SDS011;22748;8.426;99.512;2022-10-17T01:30:02;14.77;;;11.23;;
36797;SDS011;22748;8.426;99.512;2022-10-17T01:32:45;14.27;;;11.45;;
36797;SDS011;22748;8.426;99.512;2022-10-17T01:35:22;15.25;;;11.48;;
36797;SDS011;22748;8.426;99.512;2022-10-17T01:38:02;15.38;;;11.20;;
36797;SDS011;22748;8.426;99.512;2022-10-17T01:40:39;13.45;;;11.50;;
36797;SDS011;22748;8.426;99.512;2022-10-17T01:43:17;14.57;;;10.95;;
36797;SDS011;22748;8.426;99.512;2022-10-17T01:45:53;16.02;;;11.82;;
36797;SDS011;22748;8.426;99.512;2022-10-17T01:48:30;19.33;;;11.80;;
36797;SDS011;22748;8.426;99.512;2022-10-17T01:51:05;15.50;;;10.20;;
36797;SDS011;22748;8.426;99.512;2022-10-17T01:53:43;13.07;;;9.93;;
36797;SDS011;22748;8.426;99.512;2022-10-17T01:56:17;15.68;;;10.32;;
36797;SDS011;22748;8.426;99.512;2022-10-17T01:58:51;26.42;;;9.95;;
36797;SDS011;22748;8.426;99.512;2022-10-17T02:01:25;10.55;;;7.57;;
36797;SDS011;22748;8.426;99.512;2022-10-17T02:03:59;11.60;;;7.40;;
36797;SDS011;22748;8.426;99.512;2022-10-17T02:06:33;9.98;;;6.63;;
36797;SDS011;22748;8.426;99.512;2022-10-17T02:09:13;10.20;;;6.38;;
36797;SDS011;22748;8.426;99.512;2022-10-17T02:11:49;8.25;;;6.10;;
36797;SDS011;22748;8.426;99.512;2022-10-17T02:14:32;11.77;;;6.78;;
36797;SDS011;22748;8.426;99.512;2022-10-17T02:17:16;10.38;;;5.97;;
36797;SDS011;22748;8.426;99.512;2022-10-17T02:20:00;7.53;;;5.40;;
36797;SDS011;22748;8.426;99.512;2022-10-17T02:25:13;8.48;;;3.70;;
36797;SDS011;22748;8.426;99.512;2022-10-17T02:27:51;9.27;;;5.90;;
36797;SDS011;22748;8.426;99.512;2022-10-17T02:30:25;7.95;;;3.85;;
36797;SDS011;22748;8.426;99.512;2022-10-17T02:33:01;5.15;;;2.88;;
36797;SDS011;22748;8.426;99.512;2022-10-17T02:35:39;8.77;;;2.80;;
36797;SDS011;22748;8.426;99.512;2022-10-17T02:38:12;5.47;;;2.80;;
36797;SDS011;22748;8.426;99.512;2022-10-17T02:40:41;17.42;;;3.58;;
36797;SDS011;22748;8.426;99.512;2022-10-17T02:45:44;14.50;;;3.35;;
36797;SDS011;22748;8.426;99.512;2022-10-17T02:48:17;7.07;;;2.90;;
36797;SDS011;22748;8.426;99.512;2022-10-17T02:50:58;5.70;;;3.28;;
36797;SDS011;22748;8.426;99.512;2022-10-17T02:53:36;6.15;;;2.85;;
36797;SDS011;22748;8.426;99.512;2022-10-17T02:56:15;5.10;;;2.38;;
36797;SDS011;22748;8.426;99.512;2022-10-17T02:58:47;6.80;;;2.30;;
36797;SDS011;22748;8.426;99.512;2022-10-17T03:01:21;5.25;;;2.60;;
36797;SDS011;22748;8.426;99.512;2022-10-17T03:04:02;7.93;;;2.20;;
36797;SDS011;22748;8.426;99.512;2022-10-17T03:06:34;9.30;;;3.60;;
36797;SDS011;22748;8.426;99.512;2022-10-17T03:09:04;12.98;;;3.20;;
36797;SDS011;22748;8.426;99.512;2022-10-17T03:11:33;7.47;;;2.13;;
36797;SDS011;22748;8.426;99.512;2022-10-17T03:14:03;4.32;;;2.08;;
36797;SDS011;22748;8.426;99.512;2022-10-17T03:16:32;4.05;;;2.10;;
36797;SDS011;22748;8.426;99.512;2022-10-17T03:19:01;9.70;;;2.40;;
36797;SDS011;22748;8.426;99.512;2022-10-17T03:21:31;4.45;;;2.67;;
36797;SDS011;22748;8.426;99.512;2022-10-17T03:24:04;5.65;;;2.03;;
36797;SDS011;22748;8.426;99.512;2022-10-17T03:26:34;14.13;;;5.50;;
36797;SDS011;22748;8.426;99.512;2022-10-17T03:29:04;6.95;;;2.67;;
36797;SDS011;22748;8.426;99.512;2022-10-17T03:31:33;7.95;;;2.33;;
36797;SDS011;22748;8.426;99.512;2022-10-17T03:34:03;9.48;;;2.65;;
36797;SDS011;22748;8.426;99.512;2022-10-17T03:36:45;16.45;;;8.88;;
36797;SDS011;22748;8.426;99.512;2022-10-17T03:39:21;14.80;;;7.45;;
36797;SDS011;22748;8.426;99.512;2022-10-17T03:41:50;12.13;;;7.85;;
36797;SDS011;22748;8.426;99.512;2022-10-17T03:44:20;12.52;;;6.93;;
36797;SDS011;22748;8.426;99.512;2022-10-17T03:46:49;6.32;;;3.80;;
36797;SDS011;22748;8.426;99.512;2022-10-17T03:49:18;9.18;;;4.07;;
36797;SDS011;22748;8.426;99.512;2022-10-17T03:51:48;9.50;;;3.53;;
36797;SDS011;22748;8.426;99.512;2022-10-17T03:54:17;8.40;;;3.17;;
36797;SDS011;22748;8.426;99.512;2022-10-17T03:56:48;7.75;;;2.60;;
36797;SDS011;22748;8.426;99.512;2022-10-17T03:59:17;4.47;;;2.45;;
36797;SDS011;22748;8.426;99.512;2022-10-17T04:01:46;5.00;;;1.70;;
36797;SDS011;22748;8.426;99.512;2022-10-17T04:04:16;6.28;;;1.92;;
36797;SDS011;22748;8.426;99.512;2022-10-17T04:06:45;5.70;;;3.25;;
36797;SDS011;22748;8.426;99.512;2022-10-17T04:09:14;2.35;;;2.03;;
36797;SDS011;22748;8.426;99.512;2022-10-17T04:11:44;3.92;;;1.90;;
36797;SDS011;22748;8.426;99.512;2022-10-17T04:14:15;3.88;;;1.50;;
36797;SDS011;22748;8.426;99.512;2022-10-17T04:16:46;6.35;;;1.60;;
36797;SDS011;22748;8.426;99.512;2022-10-17T04:19:15;5.35;;;1.75;;
36797;SDS011;22748;8.426;99.512;2022-10-17T04:21:44;12.05;;;3.17;;
36797;SDS011;22748;8.426;99.512;2022-10-17T04:24:14;10.25;;;2.03;;
36797;SDS011;22748;8.426;99.512;2022-10-17T04:26:43;3.35;;;2.00;;
36797;SDS011;22748;8.426;99.512;2022-10-17T04:29:13;5.70;;;2.03;;
36797;SDS011;22748;8.426;99.512;2022-10-17T04:31:44;7.57;;;2.33;;
36797;SDS011;22748;8.426;99.512;2022-10-17T04:34:14;6.40;;;2.50;;
36797;SDS011;22748;8.426;99.512;2022-10-17T04:36:44;9.48;;;2.42;;
36797;SDS011;22748;8.426;99.512;2022-10-17T04:39:13;7.07;;;2.20;;
36797;SDS011;22748;8.426;99.512;2022-10-17T04:41:43;7.53;;;2.60;;
36797;SDS011;22748;8.426;99.512;2022-10-17T04:44:16;9.35;;;5.18;;
36797;SDS011;22748;8.426;99.512;2022-10-17T04:46:45;7.97;;;2.90;;
36797;SDS011;22748;8.426;99.512;2022-10-17T04:49:15;9.73;;;3.40;;
36797;SDS011;22748;8.426;99.512;2022-10-17T04:51:45;16.63;;;5.60;;
36797;SDS011;22748;8.426;99.512;2022-10-17T04:54:16;8.73;;;2.60;;
36797;SDS011;22748;8.426;99.512;2022-10-17T04:56:45;6.78;;;2.60;;
36797;SDS011;22748;8.426;99.512;2022-10-17T04:59:16;4.40;;;2.22;;
36797;SDS011;22748;8.426;99.512;2022-10-17T05:01:47;8.43;;;2.80;;
36797;SDS011;22748;8.426;99.512;2022-10-17T05:04:16;10.77;;;3.28;;
36797;SDS011;22748;8.426;99.512;2022-10-17T05:06:46;8.52;;;3.15;;
36797;SDS011;22748;8.426;99.512;2022-10-17T05:09:15;5.13;;;2.67;;
36797;SDS011;22748;8.426;99.512;2022-10-17T05:11:45;6.85;;;2.35;;
36797;SDS011;22748;8.426;99.512;2022-10-17T05:14:17;4.70;;;2.30;;
36797;SDS011;22748;8.426;99.512;2022-10-17T05:16:46;6.10;;;2.40;;
36797;SDS011;22748;8.426;99.512;2022-10-17T05:19:16;4.50;;;1.70;;
36797;SDS011;22748;8.426;99.512;2022-10-17T05:21:46;3.58;;;1.73;;
36797;SDS011;22748;8.426;99.512;2022-10-17T05:24:15;2.95;;;1.42;;
36797;SDS011;22748;8.426;99.512;2022-10-17T05:26:45;2.67;;;1.23;;
36797;SDS011;22748;8.426;99.512;2022-10-17T05:29:19;2.92;;;1.20;;
36797;SDS011;22748;8.426;99.512;2022-10-17T05:31:50;2.05;;;1.15;;
36797;SDS011;22748;8.426;99.512;2022-10-17T05:34:20;3.40;;;0.98;;
36797;SDS011;22748;8.426;99.512;2022-10-17T05:36:52;2.90;;;0.90;;
36797;SDS011;22748;8.426;99.512;2022-10-17T05:39:23;2.58;;;0.88;;
36797;SDS011;22748;8.426;99.512;2022-10-17T05:41:52;5.70;;;1.20;;
36797;SDS011;22748;8.426;99.512;2022-10-17T05:44:24;5.85;;;1.23;;
36797;SDS011;22748;8.426;99.512;2022-10-17T05:46:54;6.25;;;1.20;;
36797;SDS011;22748;8.426;99.512;2022-10-17T05:49:24;9.43;;;6.83;;
36797;SDS011;22748;8.426;99.512;2022-10-17T05:51:54;13.45;;;12.13;;
36797;SDS011;22748;8.426;99.512;2022-10-17T05:54:23;6.90;;;4.68;;
36797;SDS011;22748;8.426;99.512;2022-10-17T05:56:54;3.88;;;2.30;;
36797;SDS011;22748;8.426;99.512;2022-10-17T05:59:25;3.22;;;1.50;;
36797;SDS011;22748;8.426;99.512;2022-10-17T06:01:55;2.88;;;1.38;;
36797;SDS011;22748;8.426;99.512;2022-10-17T06:04:25;3.42;;;1.83;;
36797;SDS011;22748;8.426;99.512;2022-10-17T06:06:54;2.13;;;1.08;;
36797;SDS011;22748;8.426;99.512;2022-10-17T06:09:25;1.98;;;1.10;;
36797;SDS011;22748;8.426;99.512;2022-10-17T06:14:25;0.82;;;0.50;;
36797;SDS011;22748;8.426;99.512;2022-10-17T06:16:55;1.85;;;0.80;;
36797;SDS011;22748;8.426;99.512;2022-10-17T06:19:24;2.50;;;0.80;;
36797;SDS011;22748;8.426;99.512;2022-10-17T06:21:53;1.00;;;0.63;;
36797;SDS011;22748;8.426;99.512;2022-10-17T06:24:23;0.98;;;0.50;;
36797;SDS011;22748;8.426;99.512;2022-10-17T06:26:52;2.42;;;0.60;;
36797;SDS011;22748;8.426;99.512;2022-10-17T06:29:22;1.52;;;0.40;;
36797;SDS011;22748;8.426;99.512;2022-10-17T06:31:53;0.65;;;0.32;;
36797;SDS011;22748;8.426;99.512;2022-10-17T06:34:22;2.50;;;0.50;;
36797;SDS011;22748;8.426;99.512;2022-10-17T06:36:52;1.02;;;0.40;;
36797;SDS011;22748;8.426;99.512;2022-10-17T06:39:21;0.98;;;0.50;;
36797;SDS011;22748;8.426;99.512;2022-10-17T06:41:53;1.55;;;0.50;;
36797;SDS011;22748;8.426;99.512;2022-10-17T06:44:23;2.15;;;0.60;;
36797;SDS011;22748;8.426;99.512;2022-10-17T06:46:57;2.00;;;0.60;;
36797;SDS011;22748;8.426;99.512;2022-10-17T06:49:27;1.40;;;0.57;;
36797;SDS011;22748;8.426;99.512;2022-10-17T06:51:57;1.15;;;0.40;;
36797;SDS011;22748;8.426;99.512;2022-10-17T06:54:27;1.58;;;0.40;;
36797;SDS011;22748;8.426;99.512;2022-10-17T06:56:57;3.17;;;1.80;;
36797;SDS011;22748;8.426;99.512;2022-10-17T06:59:28;1.35;;;0.50;;
36797;SDS011;22748;8.426;99.512;2022-10-17T07:01:57;1.02;;;0.50;;
36797;SDS011;22748;8.426;99.512;2022-10-17T07:04:28;1.00;;;0.40;;
36797;SDS011;22748;8.426;99.512;2022-10-17T07:06:58;1.13;;;0.40;;
36797;SDS011;22748;8.426;99.512;2022-10-17T07:09:28;1.08;;;0.52;;
36797;SDS011;22748;8.426;99.512;2022-10-17T07:11:58;1.67;;;0.50;;
36797;SDS011;22748;8.426;99.512;2022-10-17T07:14:29;3.35;;;1.30;;
36797;SDS011;22748;8.426;99.512;2022-10-17T07:16:59;1.02;;;0.40;;
36797;SDS011;22748;8.426;99.512;2022-10-17T07:19:29;1.20;;;0.68;;
36797;SDS011;22748;8.426;99.512;2022-10-17T07:21:58;1.77;;;0.88;;
36797;SDS011;22748;8.426;99.512;2022-10-17T07:24:27;1.08;;;0.47;;
36797;SDS011;22748;8.426;99.512;2022-10-17T07:26:57;1.00;;;0.50;;
36797;SDS011;22748;8.426;99.512;2022-10-17T07:29:26;0.95;;;0.50;;
36797;SDS011;22748;8.426;99.512;2022-10-17T07:31:58;1.27;;;1.00;;
36797;SDS011;22748;8.426;99.512;2022-10-17T07:34:28;1.20;;;0.90;;
36797;SDS011;22748;8.426;99.512;2022-10-17T07:36:58;1.33;;;0.90;;
36797;SDS011;22748;8.426;99.512;2022-10-17T07:39:28;1.70;;;0.82;;
36797;SDS011;22748;8.426;99.512;2022-10-17T07:42:00;1.02;;;0.80;;
36797;SDS011;22748;8.426;99.512;2022-10-17T07:44:31;1.48;;;0.85;;
36797;SDS011;22748;8.426;99.512;2022-10-17T07:47:02;2.22;;;0.85;;
36797;SDS011;22748;8.426;99.512;2022-10-17T07:52:03;1.98;;;0.90;;
36797;SDS011;22748;8.426;99.512;2022-10-17T07:54:32;1.08;;;0.80;;
36797;SDS011;22748;8.426;99.512;2022-10-17T07:57:02;2.53;;;1.30;;
36797;SDS011;22748;8.426;99.512;2022-10-17T07:59:36;1.38;;;1.00;;
36797;SDS011;22748;8.426;99.512;2022-10-17T08:02:05;1.35;;;1.08;;
36797;SDS011;22748;8.426;99.512;2022-10-17T08:04:36;1.20;;;1.03;;
36797;SDS011;22748;8.426;99.512;2022-10-17T08:07:05;1.00;;;0.73;;
36797;SDS011;22748;8.426;99.512;2022-10-17T08:09:35;2.00;;;0.80;;
36797;SDS011;22748;8.426;99.512;2022-10-17T08:12:04;1.02;;;0.90;;
36797;SDS011;22748;8.426;99.512;2022-10-17T08:14:36;1.33;;;0.82;;
36797;SDS011;22748;8.426;99.512;2022-10-17T08:17:06;0.80;;;0.75;;
36797;SDS011;22748;8.426;99.512;2022-10-17T08:19:38;3.20;;;0.77;;
36797;SDS011;22748;8.426;99.512;2022-10-17T08:22:07;1.30;;;0.70;;
36797;SDS011;22748;8.426;99.512;2022-10-17T08:24:37;1.38;;;0.85;;
36797;SDS011;22748;8.426;99.512;2022-10-17T08:27:07;2.37;;;1.33;;
36797;SDS011;22748;8.426;99.512;2022-10-17T08:29:42;1.30;;;0.93;;
36797;SDS011;22748;8.426;99.512;2022-10-17T08:32:13;1.85;;;0.98;;
36797;SDS011;22748;8.426;99.512;2022-10-17T08:34:43;2.58;;;0.93;;
36797;SDS011;22748;8.426;99.512;2022-10-17T08:37:14;2.10;;;0.90;;
36797;SDS011;22748;8.426;99.512;2022-10-17T08:39:44;1.15;;;0.85;;
36797;SDS011;22748;8.426;99.512;2022-10-17T08:42:26;3.00;;;0.98;;
36797;SDS011;22748;8.426;99.512;2022-10-17T08:45:14;2.78;;;1.02;;
36797;SDS011;22748;8.426;99.512;2022-10-17T08:47:50;1.92;;;0.80;;
36797;SDS011;22748;8.426;99.512;2022-10-17T08:50:27;1.63;;;0.90;;
36797;SDS011;22748;8.426;99.512;2022-10-17T08:53:04;1.45;;;1.13;;
36797;SDS011;22748;8.426;99.512;2022-10-17T08:55:39;1.40;;;0.93;;
36797;SDS011;22748;8.426;99.512;2022-10-17T08:58:16;1.40;;;1.05;;
36797;SDS011;22748;8.426;99.512;2022-10-17T09:00:51;1.30;;;1.13;;
36797;SDS011;22748;8.426;99.512;2022-10-17T09:03:34;6.20;;;1.40;;
36797;SDS011;22748;8.426;99.512;2022-10-17T09:06:16;3.67;;;1.40;;
36797;SDS011;22748;8.426;99.512;2022-10-17T09:09:02;2.00;;;1.20;;
36797;SDS011;22748;8.426;99.512;2022-10-17T09:11:46;3.50;;;1.45;;
36797;SDS011;22748;8.426;99.512;2022-10-17T09:14:39;3.67;;;1.13;;
36797;SDS011;22748;8.426;99.512;2022-10-17T09:17:33;3.25;;;1.30;;
36797;SDS011;22748;8.426;99.512;2022-10-17T09:20:13;4.68;;;2.60;;
36797;SDS011;22748;8.426;99.512;2022-10-17T09:22:51;2.83;;;2.10;;
36797;SDS011;22748;8.426;99.512;2022-10-17T09:25:27;3.08;;;2.40;;
36797;SDS011;22748;8.426;99.512;2022-10-17T09:28:02;2.25;;;2.05;;
36797;SDS011;22748;8.426;99.512;2022-10-17T09:30:39;4.20;;;1.95;;
36797;SDS011;22748;8.426;99.512;2022-10-17T09:33:16;3.38;;;1.60;;
36797;SDS011;22748;8.426;99.512;2022-10-17T09:35:49;3.75;;;1.60;;
36797;SDS011;22748;8.426;99.512;2022-10-17T09:38:21;3.35;;;1.70;;
36797;SDS011;22748;8.426;99.512;2022-10-17T09:40:56;2.92;;;2.00;;
36797;SDS011;22748;8.426;99.512;2022-10-17T09:43:28;2.70;;;1.70;;
36797;SDS011;22748;8.426;99.512;2022-10-17T09:46:00;4.10;;;2.20;;
36797;SDS011;22748;8.426;99.512;2022-10-17T09:48:38;2.85;;;2.00;;
36797;SDS011;22748;8.426;99.512;2022-10-17T09:51:11;3.88;;;2.05;;
36797;SDS011;22748;8.426;99.512;2022-10-17T09:53:43;3.88;;;2.00;;
36797;SDS011;22748;8.426;99.512;2022-10-17T09:56:18;2.40;;;2.20;;
36797;SDS011;22748;8.426;99.512;2022-10-17T09:58:49;7.68;;;4.30;;
36797;SDS011;22748;8.426;99.512;2022-10-17T10:01:24;5.57;;;4.50;;
36797;SDS011;22748;8.426;99.512;2022-10-17T10:09:33;3.35;;;2.50;;
36797;SDS011;22748;8.426;99.512;2022-10-17T10:12:05;4.00;;;2.15;;
36797;SDS011;22748;8.426;99.512;2022-10-17T10:14:43;2.38;;;1.50;;
36797;SDS011;22748;8.426;99.512;2022-10-17T10:20:03;3.40;;;1.40;;
36797;SDS011;22748;8.426;99.512;2022-10-17T10:25:51;1.88;;;1.13;;
36797;SDS011;22748;8.426;99.512;2022-10-17T10:28:27;3.03;;;1.45;;
36797;SDS011;22748;8.426;99.512;2022-10-17T10:31:01;2.72;;;1.13;;
36797;SDS011;22748;8.426;99.512;2022-10-17T10:33:35;3.75;;;1.30;;
36797;SDS011;22748;8.426;99.512;2022-10-17T10:36:10;2.92;;;1.10;;
36797;SDS011;22748;8.426;99.512;2022-10-17T10:38:41;4.15;;;1.20;;
36797;SDS011;22748;8.426;99.512;2022-10-17T10:41:20;4.15;;;0.90;;
36797;SDS011;22748;8.426;99.512;2022-10-17T10:43:53;3.83;;;1.35;;
36797;SDS011;22748;8.426;99.512;2022-10-17T10:46:24;7.82;;;1.42;;
36797;SDS011;22748;8.426;99.512;2022-10-17T10:48:56;8.20;;;2.70;;
36797;SDS011;22748;8.426;99.512;2022-10-17T10:51:28;3.97;;;1.40;;
36797;SDS011;22748;8.426;99.512;2022-10-17T10:54:07;3.75;;;1.20;;
36797;SDS011;22748;8.426;99.512;2022-10-17T10:56:45;12.10;;;2.35;;
36797;SDS011;22748;8.426;99.512;2022-10-17T10:59:19;7.30;;;2.92;;
36797;SDS011;22748;8.426;99.512;2022-10-17T11:02:01;8.52;;;3.20;;
36797;SDS011;22748;8.426;99.512;2022-10-17T11:04:41;9.75;;;6.07;;
36797;SDS011;22748;8.426;99.512;2022-10-17T11:07:18;8.15;;;3.95;;
36797;SDS011;22748;8.426;99.512;2022-10-17T11:09:55;8.02;;;3.38;;
36797;SDS011;22748;8.426;99.512;2022-10-17T11:12:33;4.60;;;2.83;;
36797;SDS011;22748;8.426;99.512;2022-10-17T11:15:08;5.00;;;2.50;;
36797;SDS011;22748;8.426;99.512;2022-10-17T11:17:51;5.20;;;2.60;;
36797;SDS011;22748;8.426;99.512;2022-10-17T11:20:29;6.53;;;2.40;;
36797;SDS011;22748;8.426;99.512;2022-10-17T11:23:15;8.27;;;2.10;;
36797;SDS011;22748;8.426;99.512;2022-10-17T11:25:49;5.75;;;2.40;;
36797;SDS011;22748;8.426;99.512;2022-10-17T11:28:21;3.75;;;1.83;;
36797;SDS011;22748;8.426;99.512;2022-10-17T11:30:55;2.97;;;1.58;;
36797;SDS011;22748;8.426;99.512;2022-10-17T11:33:29;5.38;;;2.10;;
36797;SDS011;22748;8.426;99.512;2022-10-17T11:36:11;4.75;;;1.88;;
36797;SDS011;22748;8.426;99.512;2022-10-17T11:38:49;3.17;;;1.40;;
36797;SDS011;22748;8.426;99.512;2022-10-17T11:41:26;3.78;;;1.40;;
36797;SDS011;22748;8.426;99.512;2022-10-17T11:44:16;6.53;;;1.77;;
36797;SDS011;22748;8.426;99.512;2022-10-17T11:46:53;4.78;;;2.92;;
36797;SDS011;22748;8.426;99.512;2022-10-17T11:49:27;3.65;;;2.30;;
36797;SDS011;22748;8.426;99.512;2022-10-17T11:52:05;6.25;;;2.38;;
36797;SDS011;22748;8.426;99.512;2022-10-17T11:54:56;3.80;;;2.40;;
36797;SDS011;22748;8.426;99.512;2022-10-17T11:57:41;5.82;;;2.35;;
36797;SDS011;22748;8.426;99.512;2022-10-17T12:00:23;7.60;;;3.38;;
36797;SDS011;22748;8.426;99.512;2022-10-17T12:03:01;11.43;;;2.33;;
36797;SDS011;22748;8.426;99.512;2022-10-17T12:05:42;4.28;;;1.92;;
36797;SDS011;22748;8.426;99.512;2022-10-17T12:08:20;5.30;;;1.65;;
36797;SDS011;22748;8.426;99.512;2022-10-17T12:11:02;5.25;;;2.53;;
36797;SDS011;22748;8.426;99.512;2022-10-17T12:19:19;14.25;;;5.38;;
36797;SDS011;22748;8.426;99.512;2022-10-17T12:21:55;8.27;;;5.60;;
36797;SDS011;22748;8.426;99.512;2022-10-17T12:24:33;6.95;;;4.82;;
36797;SDS011;22748;8.426;99.512;2022-10-17T12:35:50;9.93;;;4.40;;
36797;SDS011;22748;8.426;99.512;2022-10-17T12:38:39;8.15;;;4.00;;
36797;SDS011;22748;8.426;99.512;2022-10-17T12:41:10;6.93;;;3.65;;
36797;SDS011;22748;8.426;99.512;2022-10-17T12:43:43;6.18;;;3.65;;
36797;SDS011;22748;8.426;99.512;2022-10-17T12:49:35;4.85;;;3.92;;
36797;SDS011;22748;8.426;99.512;2022-10-17T12:52:15;5.32;;;4.38;;
36797;SDS011;22748;8.426;99.512;2022-10-17T12:54:52;7.68;;;5.95;;
36797;SDS011;22748;8.426;99.512;2022-10-17T12:57:29;6.57;;;5.78;;
36797;SDS011;22748;8.426;99.512;2022-10-17T13:00:15;9.75;;;5.68;;
36797;SDS011;22748;8.426;99.512;2022-10-17T13:02:53;9.30;;;5.90;;
36797;SDS011;22748;8.426;99.512;2022-10-17T13:05:28;6.70;;;5.82;;
36797;SDS011;22748;8.426;99.512;2022-10-17T13:08:01;9.32;;;5.30;;
36797;SDS011;22748;8.426;99.512;2022-10-17T13:10:32;7.05;;;4.45;;
36797;SDS011;22748;8.426;99.512;2022-10-17T13:13:07;6.22;;;4.70;;
36797;SDS011;22748;8.426;99.512;2022-10-17T13:15:45;9.70;;;4.90;;
36797;SDS011;22748;8.426;99.512;2022-10-17T13:18:17;7.50;;;5.30;;
36797;SDS011;22748;8.426;99.512;2022-10-17T13:21:02;6.43;;;4.70;;
36797;SDS011;22748;8.426;99.512;2022-10-17T13:23:35;7.05;;;5.00;;
36797;SDS011;22748;8.426;99.512;2022-10-17T13:26:11;6.30;;;4.80;;
36797;SDS011;22748;8.426;99.512;2022-10-17T13:28:45;8.07;;;4.28;;
36797;SDS011;22748;8.426;99.512;2022-10-17T13:31:31;7.30;;;4.68;;
36797;SDS011;22748;8.426;99.512;2022-10-17T13:34:02;5.88;;;4.32;;
36797;SDS011;22748;8.426;99.512;2022-10-17T13:36:35;5.18;;;4.15;;
36797;SDS011;22748;8.426;99.512;2022-10-17T13:39:05;6.15;;;3.28;;
36797;SDS011;22748;8.426;99.512;2022-10-17T13:41:37;5.80;;;3.38;;
36797;SDS011;22748;8.426;99.512;2022-10-17T13:44:10;3.45;;;3.00;;
36797;SDS011;22748;8.426;99.512;2022-10-17T13:46:44;3.25;;;2.92;;
36797;SDS011;22748;8.426;99.512;2022-10-17T13:49:19;8.82;;;4.82;;
36797;SDS011;22748;8.426;99.512;2022-10-17T13:51:54;11.45;;;8.23;;
36797;SDS011;22748;8.426;99.512;2022-10-17T13:54:34;13.88;;;9.73;;
36797;SDS011;22748;8.426;99.512;2022-10-17T13:57:16;11.07;;;8.23;;
36797;SDS011;22748;8.426;99.512;2022-10-17T13:59:49;9.27;;;6.75;;
36797;SDS011;22748;8.426;99.512;2022-10-17T14:02:25;7.68;;;6.97;;
36797;SDS011;22748;8.426;99.512;2022-10-17T14:04:59;10.70;;;6.88;;
36797;SDS011;22748;8.426;99.512;2022-10-17T14:07:37;6.07;;;5.07;;
36797;SDS011;22748;8.426;99.512;2022-10-17T14:10:17;9.07;;;5.00;;
36797;SDS011;22748;8.426;99.512;2022-10-17T14:12:49;7.43;;;5.10;;
36797;SDS011;22748;8.426;99.512;2022-10-17T14:15:20;6.30;;;3.83;;
36797;SDS011;22748;8.426;99.512;2022-10-17T14:17:53;3.95;;;3.53;;
36797;SDS011;22748;8.426;99.512;2022-10-17T14:20:26;6.82;;;3.55;;
36797;SDS011;22748;8.426;99.512;2022-10-17T14:22:57;6.13;;;3.65;;
36797;SDS011;22748;8.426;99.512;2022-10-17T14:25:31;4.32;;;3.00;;
36797;SDS011;22748;8.426;99.512;2022-10-17T14:28:02;4.97;;;3.10;;
36797;SDS011;22748;8.426;99.512;2022-10-17T14:30:42;4.18;;;3.00;;
36797;SDS011;22748;8.426;99.512;2022-10-17T14:33:14;4.03;;;3.30;;
36797;SDS011;22748;8.426;99.512;2022-10-17T14:35:50;5.63;;;3.20;;
36797;SDS011;22748;8.426;99.512;2022-10-17T14:38:23;6.43;;;3.33;;
36797;SDS011;22748;8.426;99.512;2022-10-17T14:40:57;3.60;;;2.78;;
36797;SDS011;22748;8.426;99.512;2022-10-17T14:43:30;4.45;;;2.42;;
36797;SDS011;22748;8.426;99.512;2022-10-17T14:46:00;7.32;;;2.88;;
36797;SDS011;22748;8.426;99.512;2022-10-17T14:48:31;3.92;;;2.45;;
36797;SDS011;22748;8.426;99.512;2022-10-17T14:51:06;4.63;;;2.28;;
36797;SDS011;22748;8.426;99.512;2022-10-17T14:53:38;4.68;;;2.22;;
36797;SDS011;22748;8.426;99.512;2022-10-17T14:56:21;3.95;;;2.33;;
36797;SDS011;22748;8.426;99.512;2022-10-17T14:58:53;4.03;;;2.55;;
36797;SDS011;22748;8.426;99.512;2022-10-17T15:01:24;6.30;;;2.20;;
36797;SDS011;22748;8.426;99.512;2022-10-17T15:03:54;4.95;;;2.00;;
36797;SDS011;22748;8.426;99.512;2022-10-17T15:06:27;4.20;;;2.28;;
36797;SDS011;22748;8.426;99.512;2022-10-17T15:08:59;2.95;;;2.13;;
36797;SDS011;22748;8.426;99.512;2022-10-17T15:11:30;4.82;;;2.30;;
36797;SDS011;22748;8.426;99.512;2022-10-17T15:13:59;3.83;;;2.60;;
36797;SDS011;22748;8.426;99.512;2022-10-17T15:16:30;8.93;;;3.10;;
36797;SDS011;22748;8.426;99.512;2022-10-17T15:19:02;5.03;;;3.00;;
36797;SDS011;22748;8.426;99.512;2022-10-17T15:21:33;3.70;;;2.75;;
36797;SDS011;22748;8.426;99.512;2022-10-17T15:24:05;3.90;;;2.93;;
36797;SDS011;22748;8.426;99.512;2022-10-17T15:26:36;4.35;;;2.83;;
36797;SDS011;22748;8.426;99.512;2022-10-17T15:29:08;5.88;;;2.60;;
36797;SDS011;22748;8.426;99.512;2022-10-17T15:31:42;5.13;;;2.50;;
36797;SDS011;22748;8.426;99.512;2022-10-17T15:34:13;5.78;;;2.60;;
36797;SDS011;22748;8.426;99.512;2022-10-17T15:36:47;3.47;;;2.40;;
36797;SDS011;22748;8.426;99.512;2022-10-17T15:39:18;3.78;;;2.38;;
36797;SDS011;22748;8.426;99.512;2022-10-17T15:41:50;4.65;;;2.10;;
36797;SDS011;22748;8.426;99.512;2022-10-17T15:44:21;3.78;;;2.30;;
36797;SDS011;22748;8.426;99.512;2022-10-17T15:46:50;5.60;;;3.05;;
36797;SDS011;22748;8.426;99.512;2022-10-17T15:49:22;7.00;;;2.55;;
36797;SDS011;22748;8.426;99.512;2022-10-17T15:51:54;5.80;;;3.35;;
36797;SDS011;22748;8.426;99.512;2022-10-17T15:54:26;2.65;;;2.33;;
36797;SDS011;22748;8.426;99.512;2022-10-17T15:56:57;3.67;;;2.90;;
36797;SDS011;22748;8.426;99.512;2022-10-17T15:59:29;7.70;;;3.17;;
36797;SDS011;22748;8.426;99.512;2022-10-17T16:02:02;4.78;;;3.00;;
36797;SDS011;22748;8.426;99.512;2022-10-17T16:04:38;3.20;;;2.83;;
36797;SDS011;22748;8.426;99.512;2022-10-17T16:07:09;3.92;;;2.65;;
36797;SDS011;22748;8.426;99.512;2022-10-17T16:09:40;4.70;;;2.90;;